Time;durP1;ratioP1;P1;durP2;ratioP2;P2;SDS_P1;SDS_P2;PMS_P1;PMS_P2;Temp;Humidity;BMP_temperature;BMP_pressure;BME280_temperature;BME280_humidity;BME280_pressure;Samples;Min_cycle;Max_cycle;Signal;HPM_P1;HPM_P2
2023/03/24 00:01:14;;;;;;;5.75;2.70;;;;;;;11.44;100.00;99679.50;4974701;28;20137;-73
2023/03/24 00:03:39;;;;;;;4.57;2.63;;;;;;;11.44;100.00;99664.06;4990693;28;20039;-73
2023/03/24 00:06:06;;;;;;;7.25;3.25;;;;;;;11.47;100.00;99662.75;4994375;28;20029;-73
2023/03/24 00:08:36;;;;;;;7.18;3.38;;;;;;;11.49;100.00;99655.19;4994570;28;20022;-72
2023/03/24 00:11:05;;;;;;;5.63;2.72;;;;;;;11.48;100.00;99659.78;4994343;28;20406;-72
2023/03/24 00:13:37;;;;;;;3.15;2.63;;;;;;;11.51;100.00;99656.53;4994534;28;20113;-72
2023/03/24 00:16:03;;;;;;;;;;;;;;;11.63;100.00;99650.13;4977023;28;20029;-73
2023/03/24 00:18:29;;;;;;;5.13;2.80;;;;;;;11.56;100.00;99657.66;4976961;28;19921;-72
2023/03/24 00:20:57;;;;;;;5.22;2.78;;;;;;;11.56;100.00;99649.53;4975065;28;20459;-72
2023/03/24 00:23:25;;;;;;;5.85;3.00;;;;;;;11.57;100.00;99659.31;4957357;28;20030;-72
2023/03/24 00:26:01;;;;;;;2.92;2.53;;;;;;;11.61;100.00;99654.97;4975140;28;20038;-72
2023/03/24 00:28:32;;;;;;;3.30;2.70;;;;;;;11.58;100.00;99652.78;4974795;28;20026;-72
2023/03/24 00:30:58;;;;;;;3.92;2.72;;;;;;;11.61;100.00;99647.69;4974490;28;20027;-72
2023/03/24 00:33:24;;;;;;;4.45;2.70;;;;;;;11.62;100.00;99643.88;4956148;28;20055;-72
2023/03/24 00:35:49;;;;;;;4.38;3.00;;;;;;;11.64;100.00;99640.91;4957238;28;20050;-72
2023/03/24 00:38:14;;;;;;;3.75;2.42;;;;;;;11.66;100.00;99636.06;4987437;28;20026;-73
2023/03/24 00:40:50;;;;;;;2.90;2.60;;;;;;;11.67;100.00;99629.53;4993706;28;20493;-72
2023/03/24 00:43:16;;;;;;;3.15;2.30;;;;;;;11.69;100.00;99630.09;4993668;28;20031;-73
2023/03/24 00:45:45;;;;;;;4.15;2.63;;;;;;;11.70;100.00;99610.88;4976385;28;20033;-73
2023/03/24 00:48:16;;;;;;;2.80;2.50;;;;;;;11.73;100.00;99612.25;4986723;28;20355;-72
2023/03/24 00:50:50;;;;;;;3.35;2.60;;;;;;;11.77;100.00;99612.53;4974335;28;20084;-72
2023/03/24 00:53:16;;;;;;;4.22;2.17;;;;;;;11.83;100.00;99608.75;4974039;28;20437;-73
2023/03/24 00:55:45;;;;;;;2.40;2.03;;;;;;;11.84;100.00;99607.69;4988488;28;20018;-72
2023/03/24 00:58:16;;;;;;;5.53;2.45;;;;;;;11.86;100.00;99597.38;4993162;28;20470;-72
2023/03/24 01:00:46;;;;;;;3.47;2.40;;;;;;;11.88;100.00;99595.22;4973802;28;20055;-72
2023/03/24 01:03:11;;;;;;;4.80;2.28;;;;;;;11.88;100.00;99596.06;4984389;28;20084;-73
2023/03/24 01:05:37;;;;;;;3.22;2.00;;;;;;;11.87;100.00;99597.13;4974100;28;20117;-72
2023/03/24 01:08:05;;;;;;;3.05;2.25;;;;;;;11.88;100.00;99593.34;4974212;28;20030;-73
2023/03/24 01:10:41;;;;;;;3.90;2.10;;;;;;;11.84;100.00;99584.09;4956701;28;20027;-72
2023/03/24 01:13:07;;;;;;;5.40;2.60;;;;;;;11.86;100.00;99595.47;4973941;28;20443;-73
2023/03/24 01:15:33;;;;;;;4.75;2.20;;;;;;;11.87;100.00;99591.69;4989247;28;20132;-73
2023/03/24 01:18:01;;;;;;;5.47;2.35;;;;;;;11.86;100.00;99598.19;4956384;28;20474;-72
2023/03/24 01:20:27;;;;;;;4.35;2.35;;;;;;;11.83;100.00;99590.59;4973767;28;20023;-72
2023/03/24 01:22:52;;;;;;;3.53;2.42;;;;;;;11.83;100.00;99578.94;4956637;28;20106;-72
2023/03/24 01:25:22;;;;;;;2.58;2.38;;;;;;;11.81;100.00;99584.63;4975206;28;20129;-73
2023/03/24 01:27:48;;;;;;;4.20;2.35;;;;;;;11.78;100.00;99577.03;4993046;28;20057;-72
2023/03/24 01:30:16;;;;;;;4.35;2.50;;;;;;;11.77;100.00;99580.00;4977099;28;20173;-72
2023/03/24 01:32:42;;;;;;;4.20;2.38;;;;;;;11.74;100.00;99575.13;4973330;28;20039;-72
2023/03/24 01:35:10;;;;;;;2.60;2.30;;;;;;;11.70;100.00;99569.41;4973713;28;20023;-72
2023/03/24 01:37:35;;;;;;;3.60;2.45;;;;;;;11.69;100.00;99562.34;4973283;28;20031;-72
2023/03/24 01:40:01;;;;;;;5.50;2.60;;;;;;;11.69;100.00;99563.16;4973781;28;20027;-72
2023/03/24 01:42:27;;;;;;;2.80;2.33;;;;;;;11.69;100.00;99567.78;4956185;28;20026;-73
2023/03/24 01:44:59;;;;;;;3.13;2.33;;;;;;;11.68;100.00;99564.25;4973374;28;20485;-72
2023/03/24 01:47:24;;;;;;;;;;;;;;;11.72;100.00;99561.81;4977657;28;20041;-73
2023/03/24 01:49:53;;;;;;;3.58;2.63;;;;;;;11.66;100.00;99552.06;4989532;28;20261;-72
2023/03/24 01:52:31;;;;;;;3.60;2.30;;;;;;;11.64;100.00;99560.44;4973702;28;20582;-73
2023/03/24 01:55:01;;;;;;;3.25;2.35;;;;;;;11.65;100.00;99547.69;4992377;28;20667;-73
2023/03/24 01:57:32;;;;;;;6.00;2.90;;;;;;;11.64;100.00;99543.34;4960013;28;20062;-72
2023/03/24 02:00:07;;;;;;;5.75;2.78;;;;;;;11.64;100.00;99546.06;4977505;28;20031;-73
2023/03/24 02:02:34;;;;;;;3.15;2.47;;;;;;;11.62;100.00;99546.31;4975269;28;20033;-72
2023/03/24 02:05:04;;;;;;;3.28;2.80;;;;;;;11.63;100.00;99547.97;4977522;28;20030;-72
2023/03/24 02:07:35;;;;;;;4.78;2.70;;;;;;;11.63;100.00;99544.44;4976238;28;20363;-73
2023/03/24 02:10:04;;;;;;;3.95;2.83;;;;;;;11.62;100.00;99537.38;4977359;28;20030;-72
2023/03/24 02:12:31;;;;;;;3.92;2.90;;;;;;;11.64;100.00;99524.38;4976806;28;20514;-73
2023/03/24 02:14:57;;;;;;;3.20;2.53;;;;;;;11.61;100.00;99527.63;4977323;28;20034;-72
2023/03/24 02:17:41;;;;;;;4.38;2.63;;;;;;;11.62;100.00;99540.09;4977284;28;20096;-72
2023/03/24 02:20:31;;;;;;;3.05;2.45;;;;;;;11.61;100.00;99533.03;4991724;28;20069;-73
2023/03/24 02:23:02;;;;;;;3.83;2.60;;;;;;;11.62;100.00;99540.09;4976739;28;20027;-73
2023/03/24 02:25:37;;;;;;;3.33;2.70;;;;;;;11.61;100.00;99543.88;4978433;28;20459;-73
2023/03/24 02:28:21;;;;;;;6.10;2.78;;;;;;;11.60;100.00;99543.06;4989086;28;20471;-72
2023/03/24 02:31:02;;;;;;;4.18;2.90;;;;;;;11.60;100.00;99536.84;4975232;28;20022;-73
2023/03/24 02:33:36;;;;;;;3.13;2.77;;;;;;;11.58;100.00;99536.28;4959319;28;20446;-72
2023/03/24 02:36:31;;;;;;;3.42;2.60;;;;;;;11.64;100.00;99535.22;4976057;28;20026;-72
2023/03/24 02:39:17;;;;;;;3.08;2.72;;;;;;;11.61;100.00;99539.28;4991711;28;20470;-73
2023/03/24 02:41:49;;;;;;;4.38;2.95;;;;;;;11.60;100.00;99536.84;4976055;28;20034;-73
2023/03/24 02:44:26;;;;;;;4.50;2.97;;;;;;;11.59;100.00;99540.63;4981925;28;20022;-73
2023/03/24 02:47:04;;;;;;;5.85;2.97;;;;;;;11.61;100.00;99552.00;4977434;28;20019;-72
2023/03/24 02:49:54;;;;;;;4.20;3.08;;;;;;;11.64;100.00;99554.19;4978294;28;20023;-72
2023/03/24 02:52:51;;;;;;;3.50;2.80;;;;;;;11.65;100.00;99551.22;4995662;28;20049;-73
2023/03/24 02:55:30;;;;;;;3.22;2.63;;;;;;;11.65;100.00;99550.41;4995414;28;20034;-73
2023/03/24 02:58:06;;;;;;;5.07;2.85;;;;;;;11.66;100.00;99562.88;4978602;28;20034;-72
2023/03/24 03:00:40;;;;;;;4.40;2.80;;;;;;;11.64;100.00;99586.69;4976575;28;20496;-72
2023/03/24 03:03:16;;;;;;;6.47;2.83;;;;;;;11.62;100.00;99594.28;4978384;28;20026;-72
2023/03/24 03:05:48;;;;;;;4.60;2.75;;;;;;;11.67;100.00;99597.00;4995846;28;20029;-73
2023/03/24 03:08:17;;;;;;;4.00;2.78;;;;;;;11.68;100.00;99609.50;4995212;28;20458;-73
2023/03/24 03:10:45;;;;;;;2.72;2.28;;;;;;;11.59;100.00;99608.38;4995214;28;20030;-73
2023/03/24 03:13:35;;;;;;;5.63;2.22;;;;;;;11.58;100.00;99612.16;4994985;28;20494;-72
2023/03/24 03:16:09;;;;;;;3.75;2.20;;;;;;;11.58;100.00;99620.28;4978122;28;20026;-73
2023/03/24 03:19:10;;;;;;;3.92;2.20;;;;;;;11.55;100.00;99634.34;4977929;28;20022;-73
2023/03/24 03:21:40;;;;;;;2.50;2.00;;;;;;;11.45;100.00;99637.81;4967702;28;20477;-72
2023/03/24 03:24:10;;;;;;;3.80;1.90;;;;;;;11.41;100.00;99647.53;4994992;28;20068;-72
2023/03/24 03:26:36;;;;;;;2.65;1.52;;;;;;;11.29;100.00;99645.00;4984260;28;20117;-72
2023/03/24 03:29:08;;;;;;;4.22;1.60;;;;;;;11.20;100.00;99638.44;4975946;28;20097;-72
2023/03/24 03:31:40;;;;;;;3.53;1.60;;;;;;;11.10;100.00;99653.53;4975400;28;20430;-72
2023/03/24 03:34:27;;;;;;;2.35;1.65;;;;;;;11.06;100.00;99670.53;4990079;28;20046;-72
2023/03/24 03:36:55;;;;;;;2.08;1.38;;;;;;;10.97;100.00;99686.44;4975862;28;20049;-72
2023/03/24 03:39:29;;;;;;;3.72;1.30;;;;;;;10.88;100.00;99696.88;4975812;28;20042;-72
2023/03/24 03:41:56;;;;;;;2.80;1.15;;;;;;;10.81;100.00;99699.81;4975198;28;20039;-72
2023/03/24 03:44:21;;;;;;;5.70;1.63;;;;;;;10.80;100.00;99695.47;4975428;28;20494;-73
2023/03/24 03:46:47;;;;;;;2.00;1.30;;;;;;;10.76;100.00;99710.56;4958150;28;20146;-72
2023/03/24 03:49:12;;;;;;;4.07;1.90;;;;;;;10.75;100.00;99722.47;4972217;28;20034;-72
2023/03/24 03:51:38;;;;;;;4.70;2.78;;;;;;;10.71;100.00;99723.25;4977043;28;20034;-73
2023/03/24 03:54:07;;;;;;;7.90;2.95;;;;;;;10.60;100.00;99725.03;4975697;28;20027;-73
2023/03/24 03:56:35;;;;;;;7.65;3.28;;;;;;;10.53;100.00;99722.50;4957474;28;20806;-72
2023/03/24 03:59:01;;;;;;;7.18;3.50;;;;;;;10.44;100.00;99724.81;4975069;28;20557;-72
2023/03/24 04:01:30;;;;;;;9.23;3.50;;;;;;;10.44;100.00;99738.34;4955275;28;20034;-72
2023/03/24 04:04:20;;;;;;;10.80;3.70;;;;;;;10.32;100.00;99724.09;4974575;28;20470;-72
2023/03/24 04:07:08;;;;;;;6.38;2.83;;;;;;;10.22;100.00;99741.00;4975566;28;20030;-72
2023/03/24 04:09:45;;;;;;;7.07;2.80;;;;;;;10.18;100.00;99760.69;4974177;28;20366;-73
2023/03/24 04:12:21;;;;;;;5.53;2.30;;;;;;;10.17;100.00;99759.84;4994168;28;20056;-72
2023/03/24 04:15:11;;;;;;;7.95;2.35;;;;;;;10.15;100.00;99769.28;4994414;28;20027;-73
2023/03/24 04:17:54;;;;;;;7.20;2.50;;;;;;;10.19;100.00;99778.53;4993892;28;20476;-72
2023/03/24 04:20:27;;;;;;;8.60;2.47;;;;;;;10.08;100.00;99797.31;4976685;28;20374;-73
2023/03/24 04:23:01;;;;;;;6.95;2.30;;;;;;;10.10;100.00;99797.88;4971599;28;20022;-72
2023/03/24 04:25:36;;;;;;;7.85;2.63;;;;;;;10.06;100.00;99796.75;4974819;28;20030;-72
2023/03/24 04:28:38;;;;;;;8.23;2.40;;;;;;;10.04;100.00;99785.38;4974570;28;20541;-73
2023/03/24 04:31:36;;;;;;;7.20;2.20;;;;;;;10.06;100.00;99790.53;4969278;28;20085;-72
2023/03/24 04:34:28;;;;;;;7.65;2.28;;;;;;;9.98;100.00;99802.56;4976903;28;20132;-72
2023/03/24 04:37:02;;;;;;;;;;;;;;;10.02;100.00;99811.81;4994897;28;20102;-72
2023/03/24 04:39:31;;;;;;;10.73;2.42;;;;;;;9.91;100.00;99815.44;4975575;28;19909;-72
2023/03/24 04:41:59;;;;;;;9.57;2.30;;;;;;;9.87;100.00;99814.28;4993842;28;20029;-72
2023/03/24 04:44:26;;;;;;;9.48;2.30;;;;;;;9.83;100.00;99818.53;4974214;28;20081;-72
2023/03/24 04:46:56;;;;;;;8.77;2.55;;;;;;;9.82;100.00;99827.72;4974579;28;20027;-72
2023/03/24 04:49:24;;;;;;;10.27;2.60;;;;;;;9.79;100.00;99820.91;4974219;28;20023;-72
2023/03/24 04:51:50;;;;;;;7.88;2.33;;;;;;;9.73;100.00;99825.41;4974499;28;20031;-72
2023/03/24 04:54:17;;;;;;;10.80;2.63;;;;;;;9.76;100.00;99819.50;4956889;28;20054;-72
2023/03/24 04:56:52;;;;;;;12.20;3.00;;;;;;;9.75;100.00;99820.59;4941416;28;20063;-72
2023/03/24 04:59:18;;;;;;;9.93;2.92;;;;;;;9.71;100.00;99824.84;4981000;28;20108;-72
2023/03/24 05:01:48;;;;;;;6.65;3.15;;;;;;;9.71;100.00;99829.44;4979224;28;20058;-72
2023/03/24 05:04:19;;;;;;;12.67;3.00;;;;;;;9.66;100.00;99832.88;4972779;28;20022;-72
2023/03/24 05:06:45;;;;;;;10.57;2.85;;;;;;;9.65;100.00;99831.22;4974126;28;20034;-72
2023/03/24 05:09:20;;;;;;;13.27;3.75;;;;;;;9.62;100.00;99834.41;4974188;28;20054;-72
2023/03/24 05:11:45;;;;;;;10.38;3.30;;;;;;;9.69;100.00;99842.34;4973781;28;20463;-72
2023/03/24 05:14:11;;;;;;;14.07;3.55;;;;;;;9.62;100.00;99845.22;4973431;28;20030;-72
2023/03/24 05:16:36;;;;;;;10.10;3.55;;;;;;;9.60;100.00;99852.72;4972568;28;20033;-72
2023/03/24 05:19:03;;;;;;;9.63;2.80;;;;;;;9.56;100.00;99848.88;4973698;28;20526;-72
2023/03/24 05:21:28;;;;;;;13.02;3.40;;;;;;;9.54;100.00;99857.22;4973515;28;20071;-73
2023/03/24 05:23:54;;;;;;;12.40;3.03;;;;;;;9.52;100.00;99866.63;4960872;28;20102;-72
2023/03/24 05:26:19;;;;;;;11.27;3.00;;;;;;;9.51;100.00;99865.81;4975685;28;20116;-72
2023/03/24 05:28:44;;;;;;;10.45;2.85;;;;;;;9.52;100.00;99869.31;4993561;28;20037;-72
2023/03/24 05:31:13;;;;;;;12.70;3.05;;;;;;;9.48;100.00;99871.69;4993053;28;20054;-72
2023/03/24 05:33:39;;;;;;;9.32;2.40;;;;;;;9.50;100.00;99883.06;4967638;28;20054;-73
2023/03/24 05:36:05;;;;;;;11.25;2.83;;;;;;;9.51;100.00;99881.19;4975383;28;20474;-72
2023/03/24 05:38:30;;;;;;;10.10;2.75;;;;;;;9.51;100.00;99875.78;4993254;28;20052;-73
2023/03/24 05:40:59;;;;;;;9.88;2.55;;;;;;;9.48;100.00;99878.97;4975787;28;20022;-72
2023/03/24 05:43:25;;;;;;;13.43;3.20;;;;;;;9.52;100.00;99885.53;4992968;28;20076;-72
2023/03/24 05:45:51;;;;;;;14.73;3.53;;;;;;;9.54;100.00;99883.41;4993126;28;20463;-72
2023/03/24 05:48:16;;;;;;;14.38;3.50;;;;;;;9.57;100.00;99886.44;4986395;28;20029;-72
2023/03/24 05:50:42;;;;;;;12.65;3.13;;;;;;;9.56;100.00;99895.59;4981731;28;20061;-72
2023/03/24 05:53:16;;;;;;;13.63;3.78;;;;;;;9.52;100.00;99907.94;4993147;28;20485;-72
2023/03/24 05:55:41;;;;;;;12.77;3.60;;;;;;;9.54;100.00;99902.31;4992841;28;20031;-72
2023/03/24 05:58:06;;;;;;;11.88;3.00;;;;;;;9.53;100.00;99895.28;4975516;28;20117;-71
2023/03/24 06:00:32;;;;;;;13.55;3.00;;;;;;;9.54;100.00;99903.16;4988107;28;20086;-72
2023/03/24 06:02:58;;;;;;;19.58;3.70;;;;;;;9.55;100.00;99902.06;4973384;28;20114;-72
2023/03/24 06:05:25;;;;;;;14.10;3.13;;;;;;;9.53;100.00;99901.50;4975191;28;20031;-72
2023/03/24 06:07:51;;;;;;;13.85;3.28;;;;;;;9.51;100.00;99898.22;4973584;28;20467;-72
2023/03/24 06:10:17;;;;;;;15.90;3.20;;;;;;;9.55;100.00;99901.25;4955871;28;20062;-72
2023/03/24 06:12:45;;;;;;;12.18;2.88;;;;;;;9.53;100.00;99898.78;4955568;28;20046;-72
2023/03/24 06:15:16;;;;;;;14.30;3.00;;;;;;;9.53;100.00;99900.69;4955558;28;20026;-72
2023/03/24 06:17:42;;;;;;;13.07;2.60;;;;;;;9.54;100.00;99905.00;4973220;28;20035;-72
2023/03/24 06:20:13;;;;;;;13.45;3.13;;;;;;;9.52;100.00;99902.53;4973190;28;20030;-72
2023/03/24 06:22:41;;;;;;;11.90;2.72;;;;;;;9.57;100.00;99909.91;4973173;28;20023;-72
2023/03/24 06:25:07;;;;;;;11.80;3.15;;;;;;;9.53;100.00;99920.41;4973445;28;20113;-72
2023/03/24 06:27:34;;;;;;;16.13;3.22;;;;;;;9.58;100.00;99923.19;4973196;28;20485;-72
2023/03/24 06:30:00;;;;;;;11.32;2.95;;;;;;;9.60;100.00;99933.75;4955411;28;20030;-72
2023/03/24 06:32:29;;;;;;;13.65;3.42;;;;;;;9.62;100.00;99928.94;4957477;28;20035;-72
2023/03/24 06:34:55;;;;;;;11.02;2.70;;;;;;;9.61;100.00;99935.41;4959278;28;20035;-72
2023/03/24 06:37:21;;;;;;;11.93;2.90;;;;;;;9.62;100.00;99941.59;4986750;28;20497;-73
2023/03/24 06:39:47;;;;;;;11.82;3.25;;;;;;;9.61;100.00;99940.00;4961930;28;20038;-73
2023/03/24 06:42:16;;;;;;;10.63;3.08;;;;;;;9.61;100.00;99948.09;4959415;28;20031;-72
2023/03/24 06:44:42;;;;;;;12.35;3.00;;;;;;;9.65;100.00;99947.38;4958825;28;20027;-72
2023/03/24 06:47:07;;;;;;;16.73;3.15;;;;;;;9.68;100.00;99943.38;4976720;28;20113;-73
2023/03/24 06:49:33;;;;;;;16.73;3.55;;;;;;;9.71;100.00;99946.41;4959004;28;20038;-72
2023/03/24 06:52:00;;;;;;;11.82;3.08;;;;;;;9.75;100.00;99947.56;4959220;28;20050;-72
2023/03/24 06:54:30;;;;;;;16.23;3.58;;;;;;;9.75;100.00;99947.56;4962328;28;20023;-73
2023/03/24 06:56:56;;;;;;;14.20;3.03;;;;;;;9.78;100.00;99943.53;4963190;28;20418;-72
2023/03/24 06:59:23;;;;;;;19.40;3.40;;;;;;;9.76;100.00;99946.47;4959100;28;20106;-72
2023/03/24 07:01:52;;;;;;;15.35;3.20;;;;;;;9.78;100.00;99943.53;4956617;28;20464;-72
2023/03/24 07:04:19;;;;;;;14.10;3.35;;;;;;;9.79;100.00;99947.09;4959074;28;20043;-73
2023/03/24 07:06:46;;;;;;;20.90;4.03;;;;;;;9.85;100.00;99943.41;4960899;28;20432;-73
2023/03/24 07:09:12;;;;;;;16.10;3.00;;;;;;;9.84;100.00;99939.88;4971431;28;20018;-72
2023/03/24 07:11:38;;;;;;;16.17;3.17;;;;;;;9.85;100.00;99946.13;4958321;28;20532;-72
2023/03/24 07:14:03;;;;;;;16.70;3.42;;;;;;;9.91;100.00;99961.34;4958810;28;20034;-72
2023/03/24 07:16:29;;;;;;;16.45;3.28;;;;;;;9.91;100.00;99945.94;4975515;28;20062;-73
2023/03/24 07:18:54;;;;;;;13.90;2.90;;;;;;;9.98;100.00;99953.91;4958690;28;20022;-73
2023/03/24 07:21:22;;;;;;;13.95;3.35;;;;;;;10.05;100.00;99961.88;4958401;28;20031;-73
2023/03/24 07:23:47;;;;;;;14.52;3.25;;;;;;;10.04;100.00;99963.75;4971043;28;20366;-73
2023/03/24 07:26:13;;;;;;;13.48;3.60;;;;;;;10.06;100.00;99958.09;4990906;28;20038;-72
2023/03/24 07:28:41;;;;;;;17.83;3.85;;;;;;;10.07;100.00;99970.53;4958426;28;20078;-73
2023/03/24 07:31:09;;;;;;;15.15;4.03;;;;;;;10.14;100.00;99976.63;4958626;28;20050;-73
2023/03/24 07:33:37;;;;;;;18.05;3.53;;;;;;;10.17;100.00;99980.72;4975547;28;20078;-73
2023/03/24 07:36:02;;;;;;;12.85;3.00;;;;;;;10.20;100.00;99986.47;4958442;28;20023;-73
2023/03/24 07:38:38;;;;;;;16.08;3.50;;;;;;;10.20;100.00;99983.75;4991484;28;20444;-76
2023/03/24 07:41:03;;;;;;;20.10;3.78;;;;;;;10.21;100.00;99993.50;4983821;28;20038;-74
2023/03/24 07:43:34;;;;;;;21.58;3.80;;;;;;;10.22;100.00;99991.63;4974015;28;20386;-77
2023/03/24 07:45:59;;;;;;;16.20;3.10;;;;;;;10.23;100.00;99988.69;4958072;28;20031;-75
2023/03/24 07:48:25;;;;;;;15.27;3.45;;;;;;;10.22;100.00;99992.47;4957497;28;20030;-74
2023/03/24 07:50:52;;;;;;;14.40;3.17;;;;;;;10.24;100.00;99992.22;4956517;28;20027;-75
2023/03/24 07:53:18;;;;;;;14.73;3.25;;;;;;;10.29;100.00;99995.00;4956947;28;20121;-79
2023/03/24 07:55:44;;;;;;;18.10;3.75;;;;;;;10.35;100.00;100001.34;4985919;28;20027;-74
2023/03/24 07:58:10;;;;;;;18.52;3.97;;;;;;;10.36;100.00;99995.69;4973930;28;20034;-75
2023/03/24 08:00:38;;;;;;;17.95;4.28;;;;;;;10.37;100.00;99991.94;4971828;28;20117;-75
2023/03/24 08:03:26;;;;;;;16.67;3.63;;;;;;;10.40;100.00;100006.84;4958017;28;20038;-79
2023/03/24 08:05:51;;;;;;;15.65;3.55;;;;;;;10.46;100.00;100009.41;4969069;28;20113;-74
2023/03/24 08:08:17;;;;;;;18.63;3.63;;;;;;;10.55;100.00;100000.88;4976941;28;20061;-77
2023/03/24 08:10:44;;;;;;;16.83;3.53;;;;;;;10.57;100.00;100007.69;4994409;28;20034;-74
2023/03/24 08:13:09;;;;;;;14.13;3.30;;;;;;;10.60;100.00;100012.59;4996040;28;20022;-73
2023/03/24 08:15:58;;;;;;;16.67;3.53;;;;;;;10.61;100.00;100019.66;4981545;28;20031;-76
2023/03/24 08:18:24;;;;;;;19.50;3.95;;;;;;;10.62;100.00;100017.75;4969919;28;20077;-74
2023/03/24 08:20:58;;;;;;;17.70;3.30;;;;;;;10.62;100.00;100015.06;4958156;28;20384;-79
2023/03/24 08:23:24;;;;;;;14.85;3.38;;;;;;;10.66;100.00;100015.38;4962163;28;20030;-75
2023/03/24 08:25:49;;;;;;;18.55;4.03;;;;;;;10.72;100.00;100023.34;4997721;28;20014;-77
2023/03/24 08:28:23;;;;;;;15.68;3.40;;;;;;;10.82;100.00;100025.38;4977986;28;20131;-75
2023/03/24 08:30:49;;;;;;;13.20;3.10;;;;;;;10.93;100.00;100020.94;4978025;28;20032;-75
2023/03/24 08:33:15;;;;;;;15.60;3.30;;;;;;;11.03;100.00;100031.91;4977454;28;20133;-73
2023/03/24 08:35:41;;;;;;;19.60;3.53;;;;;;;11.11;100.00;100027.97;4973696;28;20120;-75
2023/03/24 08:38:08;;;;;;;13.27;3.10;;;;;;;11.15;100.00;100023.69;4994510;28;20521;-73
2023/03/24 08:40:36;;;;;;;18.67;3.38;;;;;;;11.17;100.00;100033.22;4956690;28;20030;-73
2023/03/24 08:43:04;;;;;;;13.45;3.40;;;;;;;11.23;100.00;100042.25;4974820;28;20101;-74
2023/03/24 08:45:31;;;;;;;15.40;2.92;;;;;;;11.28;100.00;100044.22;4957445;28;20081;-73
2023/03/24 08:47:59;;;;;;;15.60;3.35;;;;;;;11.33;100.00;100044.28;4957167;28;20454;-72
2023/03/24 08:50:27;;;;;;;18.02;3.38;;;;;;;11.34;100.00;100056.75;4974933;28;20027;-74
2023/03/24 08:52:54;;;;;;;14.65;3.22;;;;;;;11.27;100.00;100045.28;4974683;28;20513;-74
2023/03/24 08:55:20;;;;;;;13.20;3.00;;;;;;;11.26;100.00;100049.88;4982957;28;20370;-75
2023/03/24 08:57:45;;;;;;;12.88;2.97;;;;;;;11.19;100.00;100054.66;4993707;28;20022;-73
2023/03/24 09:00:15;;;;;;;14.60;3.15;;;;;;;11.11;100.00;100055.88;4993596;28;20034;-73
2023/03/24 09:02:41;;;;;;;14.63;3.58;;;;;;;11.07;100.00;100048.50;4974267;28;20144;-72
2023/03/24 09:05:07;;;;;;;13.80;3.30;;;;;;;11.03;100.00;100066.31;4976169;28;20125;-71
2023/03/24 09:07:33;;;;;;;13.32;2.90;;;;;;;11.02;100.00;100056.53;4975872;28;20056;-72
2023/03/24 09:09:58;;;;;;;13.73;3.10;;;;;;;11.00;100.00;100054.06;4969712;28;20446;-72
2023/03/24 09:12:24;;;;;;;13.85;2.88;;;;;;;11.04;100.00;100049.00;4973455;28;20347;-76
2023/03/24 09:14:49;;;;;;;16.27;3.50;;;;;;;11.08;100.00;100067.22;4955727;28;20449;-73
2023/03/24 09:17:16;;;;;;;11.93;3.08;;;;;;;11.12;100.00;100064.81;4972520;28;20029;-71
2023/03/24 09:19:42;;;;;;;13.15;3.42;;;;;;;11.21;100.00;100065.22;4973711;28;20019;-73
2023/03/24 09:22:07;;;;;;;20.40;4.40;;;;;;;11.26;100.00;100070.69;4956344;28;20027;-74
2023/03/24 09:24:33;;;;;;;9.60;2.95;;;;;;;11.21;100.00;100070.63;4972589;28;20031;-74
2023/03/24 09:26:59;;;;;;;16.67;3.55;;;;;;;11.10;100.00;100070.47;4977719;28;20026;-73
2023/03/24 09:29:24;;;;;;;13.07;3.00;;;;;;;11.01;100.00;100071.97;4978612;28;20037;-70
2023/03/24 09:31:52;;;;;;;15.63;3.33;;;;;;;11.00;100.00;100083.84;4992885;28;20026;-70
2023/03/24 09:34:17;;;;;;;10.55;3.00;;;;;;;10.97;100.00;100084.34;4991339;28;20382;-69
2023/03/24 09:36:43;;;;;;;10.45;2.95;;;;;;;10.98;100.00;100078.69;4966858;28;20473;-71
2023/03/24 09:39:08;;;;;;;14.27;3.05;;;;;;;11.13;100.00;100091.66;4982528;28;20417;-70
2023/03/24 09:41:34;;;;;;;13.10;3.20;;;;;;;11.28;100.00;100092.97;4991280;28;20070;-71
2023/03/24 09:44:20;;;;;;;11.77;3.08;;;;;;;11.29;100.00;100091.88;4973660;28;20034;-71
2023/03/24 09:47:23;;;;;;;13.40;3.50;;;;;;;11.29;100.00;100103.53;4982596;28;20026;-72
2023/03/24 09:49:51;;;;;;;12.13;3.10;;;;;;;11.13;100.00;100091.66;4993365;28;20413;-72
2023/03/24 09:52:23;;;;;;;15.38;3.45;;;;;;;11.06;100.00;100099.09;4991327;28;20061;-73
2023/03/24 09:55:01;;;;;;;13.52;3.15;;;;;;;11.10;100.00;100092.16;4969909;28;20023;-74
2023/03/24 09:57:39;;;;;;;14.25;3.70;;;;;;;11.17;100.00;100095.50;4977348;28;20228;-72
2023/03/24 10:00:16;;;;;;;17.48;3.70;;;;;;;11.22;100.00;100094.75;4986526;28;20062;-73
2023/03/24 10:02:42;;;;;;;12.05;2.53;;;;;;;11.24;100.00;100098.03;4973383;28;20031;-73
2023/03/24 10:05:23;;;;;;;13.32;2.97;;;;;;;11.29;100.00;100094.56;4992848;28;20030;-74
2023/03/24 10:07:58;;;;;;;12.55;3.13;;;;;;;11.26;100.00;100100.50;4995330;28;20552;-73
2023/03/24 10:11:00;;;;;;;13.95;3.17;;;;;;;11.35;100.00;100109.84;4995931;28;20081;-78
2023/03/24 10:13:36;;;;;;;16.10;3.15;;;;;;;11.39;100.00;100092.03;4975868;28;20043;-75
2023/03/24 10:16:17;;;;;;;9.60;2.85;;;;;;;11.49;100.00;100108.44;4960235;28;20031;-74
2023/03/24 10:18:52;;;;;;;13.43;3.45;;;;;;;11.57;100.00;100118.03;4970640;28;20034;-71
2023/03/24 10:21:25;;;;;;;13.40;3.00;;;;;;;11.51;100.00;100114.41;4996542;28;20058;-72
2023/03/24 10:24:00;;;;;;;11.55;2.85;;;;;;;11.53;100.00;100112.28;4979086;28;20030;-74
2023/03/24 10:26:50;;;;;;;12.48;2.63;;;;;;;11.57;99.85;100111.78;4978097;28;20121;-73
2023/03/24 10:29:34;;;;;;;10.93;2.55;;;;;;;11.62;100.00;100109.13;4967792;28;20046;-72
2023/03/24 10:32:03;;;;;;;13.38;2.65;;;;;;;11.75;97.99;100114.19;4996328;28;20478;-75
2023/03/24 10:34:32;;;;;;;9.80;2.97;;;;;;;11.91;95.12;100095.41;4988302;28;20085;-73
2023/03/24 10:37:01;;;;;;;10.82;2.78;;;;;;;12.02;85.40;100102.66;4988456;28;20022;-74
2023/03/24 10:39:28;;;;;;;10.60;2.40;;;;;;;12.06;83.37;100092.91;4960974;28;20101;-74
2023/03/24 10:41:57;;;;;;;13.02;2.85;;;;;;;12.05;83.85;100099.44;4996302;28;20033;-75
2023/03/24 10:44:23;;;;;;;11.90;3.10;;;;;;;12.02;82.45;100108.06;4977340;28;20037;-76
2023/03/24 10:46:53;;;;;;;11.65;2.70;;;;;;;12.00;84.17;100093.94;4965262;28;20030;-74
2023/03/24 10:49:21;;;;;;;9.98;2.80;;;;;;;12.02;89.14;100092.59;4972095;28;20026;-76
2023/03/24 10:52:00;;;;;;;8.45;2.50;;;;;;;12.11;89.85;100100.28;4961606;28;20093;-73
2023/03/24 10:54:28;;;;;;;10.32;2.83;;;;;;;12.08;85.08;100098.91;4959297;28;20034;-72
2023/03/24 10:56:56;;;;;;;10.35;2.90;;;;;;;12.08;86.98;100101.63;4957472;28;20062;-70
2023/03/24 10:59:43;;;;;;;13.23;2.97;;;;;;;12.06;86.20;100095.63;4982938;28;20347;-71
2023/03/24 11:02:09;;;;;;;10.55;2.67;;;;;;;12.14;86.55;100097.06;4973565;28;20049;-71
2023/03/24 11:04:37;;;;;;;8.55;2.33;;;;;;;12.31;87.90;100102.44;4993971;28;20109;-72
2023/03/24 11:07:19;;;;;;;10.25;2.80;;;;;;;12.31;83.44;100097.81;4995884;28;20243;-72
2023/03/24 11:10:20;;;;;;;9.52;2.20;;;;;;;12.30;83.28;100100.78;4978188;28;20117;-71
2023/03/24 11:12:54;;;;;;;10.85;2.97;;;;;;;12.37;85.35;100093.25;4961522;28;20035;-73
2023/03/24 11:15:28;;;;;;;10.00;2.90;;;;;;;12.37;87.48;100093.25;4989392;28;20030;-76
2023/03/24 11:18:10;;;;;;;11.68;2.80;;;;;;;12.43;85.58;100097.66;4976396;28;20053;-74
2023/03/24 11:20:38;;;;;;;12.80;2.70;;;;;;;12.52;80.98;100108.88;4971527;28;20128;-73
2023/03/24 11:23:11;;;;;;;13.90;3.00;;;;;;;12.57;84.97;100098.88;4975856;28;20090;-71
2023/03/24 11:25:48;;;;;;;10.48;2.70;;;;;;;12.62;81.21;100097.28;4966296;28;20030;-78
2023/03/24 11:28:24;;;;;;;12.05;2.22;;;;;;;12.69;84.65;100087.06;4957452;28;20027;-75
2023/03/24 11:30:51;;;;;;;12.32;2.50;;;;;;;12.72;81.73;100089.25;4975671;28;20029;-73
2023/03/24 11:33:32;;;;;;;11.25;3.00;;;;;;;12.70;80.25;100089.50;4974160;28;20126;-73
2023/03/24 11:35:58;;;;;;;14.45;2.88;;;;;;;12.63;84.37;100096.22;4975534;28;20034;-72
2023/03/24 11:38:33;;;;;;;12.63;2.63;;;;;;;12.52;82.13;100098.84;4983307;28;20458;-71